Time;durP1;ratioP1;P1;durP2;ratioP2;P2;SDS_P1;SDS_P2;PMS_P1;PMS_P2;Temp;Humidity;BMP_temperature;BMP_pressure;BME280_temperature;BME280_humidity;BME280_pressure;Samples;Min_cycle;Max_cycle;Signal;HPM_P1;HPM_P2
2021/03/09 00:01:34;;;;;;;9.33;8.43;;;5.70;31.10;;;;;;10486087;28;20221;-73
2021/03/09 00:06:37;;;;;;;9.77;8.77;;;5.70;31.00;;;;;;10488483;28;20236;-73
2021/03/09 00:11:39;;;;;;;9.73;8.77;;;5.60;31.20;;;;;;10482082;28;20247;-73
2021/03/09 00:16:42;;;;;;;9.73;8.83;;;5.60;31.20;;;;;;10482248;28;20263;-73
2021/03/09 00:21:45;;;;;;;10.77;9.67;;;5.60;31.10;;;;;;10486795;28;20230;-73
2021/03/09 00:26:47;;;;;;;11.27;9.53;;;5.50;31.20;;;;;;10479649;28;20251;-74
2021/03/09 00:31:49;;;;;;;11.30;10.10;;;5.50;31.10;;;;;;10479231;28;20238;-73
2021/03/09 00:36:52;;;;;;;10.60;9.43;;;5.40;30.90;;;;;;10473811;28;20282;-74
2021/03/09 00:41:55;;;;;;;11.13;9.97;;;5.40;31.00;;;;;;10476139;28;20425;-73
2021/03/09 00:46:57;;;;;;;11.63;9.90;;;5.40;31.10;;;;;;10479137;28;20232;-73
2021/03/09 00:52:00;;;;;;;10.63;9.53;;;5.30;31.00;;;;;;10477093;28;20231;-73
2021/03/09 00:57:02;;;;;;;10.23;9.23;;;5.30;31.00;;;;;;10478699;28;20224;-72
2021/03/09 01:02:05;;;;;;;9.43;8.50;;;5.30;31.00;;;;;;10476762;28;20735;-73
2021/03/09 01:07:08;;;;;;;9.10;8.20;;;5.30;31.00;;;;;;10477945;28;20232;-75
2021/03/09 01:12:10;;;;;;;9.30;8.40;;;5.20;30.90;;;;;;10475273;28;20231;-74
2021/03/09 01:17:12;;;;;;;9.60;8.67;;;5.10;30.80;;;;;;10478230;28;20228;-73
2021/03/09 01:22:16;;;;;;;9.43;8.53;;;5.00;30.70;;;;;;10479263;28;20831;-74
2021/03/09 01:27:18;;;;;;;11.57;8.27;;;5.00;30.80;;;;;;10475289;28;20228;-74
2021/03/09 01:32:21;;;;;;;10.13;9.03;;;4.90;30.60;;;;;;10477881;28;20231;-74
2021/03/09 01:37:24;;;;;;;9.50;8.37;;;4.90;30.70;;;;;;10474757;28;20307;-74
2021/03/09 01:42:26;;;;;;;9.40;8.10;;;4.90;30.80;;;;;;10473378;28;20231;-73
2021/03/09 01:47:31;;;;;;;9.03;8.13;;;4.80;30.60;;;;;;10477006;28;20716;-73
2021/03/09 01:52:34;;;;;;;8.77;7.90;;;4.80;30.60;;;;;;10477393;28;20297;-73
2021/03/09 01:57:37;;;;;;;9.03;8.17;;;4.60;30.40;;;;;;10475505;28;20232;-74
2021/03/09 02:02:39;;;;;;;8.47;7.57;;;4.50;30.70;;;;;;10478857;28;20693;-74
2021/03/09 02:07:43;;;;;;;8.30;7.50;;;4.50;30.80;;;;;;10473675;28;20220;-73
2021/03/09 02:12:58;;;;;;;8.10;7.40;;;4.30;30.80;;;;;;10480051;28;20254;-73
2021/03/09 02:18:11;;;;;;;8.33;7.50;;;4.40;31.20;;;;;;10471634;28;20725;-74
2021/03/09 02:23:41;;;;;;;7.90;7.13;;;4.30;31.00;;;;;;10474921;28;20289;-74
2021/03/09 02:28:51;;;;;;;8.73;7.87;;;4.30;31.10;;;;;;10476225;28;20216;-74
2021/03/09 02:33:58;;;;;;;9.13;8.27;;;4.20;30.90;;;;;;10470356;28;20225;-74
2021/03/09 02:39:04;;;;;;;9.07;8.17;;;4.20;30.90;;;;;;10476552;28;20232;-73
2021/03/09 02:44:09;;;;;;;8.77;7.90;;;4.10;30.90;;;;;;10471604;28;20269;-73
2021/03/09 02:49:13;;;;;;;8.80;7.97;;;4.10;31.50;;;;;;10471636;28;20231;-74
2021/03/09 02:54:17;;;;;;;9.47;8.30;;;4.10;30.90;;;;;;10471316;28;20650;-74
2021/03/09 02:59:21;;;;;;;8.83;7.93;;;4.10;30.90;;;;;;10474242;28;20692;-74
2021/03/09 03:04:24;;;;;;;9.57;8.47;;;4.10;30.90;;;;;;10466471;28;20232;-74
2021/03/09 03:09:28;;;;;;;9.53;7.50;;;4.00;30.80;;;;;;10478240;28;20224;-74
2021/03/09 03:14:30;;;;;;;8.80;7.87;;;4.00;30.70;;;;;;10477991;28;20318;-73
2021/03/09 03:19:35;;;;;;;8.53;7.63;;;4.00;30.80;;;;;;10472455;28;20232;-73
2021/03/09 03:24:37;;;;;;;9.00;7.70;;;4.00;30.70;;;;;;10475935;28;20233;-74
2021/03/09 03:29:40;;;;;;;8.90;8.00;;;3.90;30.50;;;;;;10475691;28;20238;-74
2021/03/09 03:34:44;;;;;;;8.70;7.80;;;3.80;30.50;;;;;;10484215;28;20224;-74
2021/03/09 03:39:46;;;;;;;8.97;8.07;;;3.80;30.80;;;;;;10479640;28;20231;-74
2021/03/09 03:44:49;;;;;;;8.67;7.80;;;3.70;30.60;;;;;;10479438;28;20303;-73
2021/03/09 03:49:52;;;;;;;9.27;7.83;;;3.70;30.70;;;;;;10482951;28;20238;-74
2021/03/09 03:55:02;;;;;;;7.93;7.23;;;3.70;30.50;;;;;;10482589;28;20262;-74
2021/03/09 04:00:07;;;;;;;8.00;7.03;;;3.60;30.60;;;;;;10478601;28;20231;-74
2021/03/09 04:05:12;;;;;;;9.47;7.53;;;3.60;30.70;;;;;;10480305;28;20236;-73
2021/03/09 04:10:14;;;;;;;8.97;8.00;;;3.50;30.60;;;;;;10481702;28;20323;-74
2021/03/09 04:15:18;;;;;;;9.47;8.03;;;3.50;30.50;;;;;;10476441;28;20258;-74
2021/03/09 04:20:21;;;;;;;9.37;7.97;;;3.50;30.70;;;;;;10480400;28;20232;-73
2021/03/09 04:25:25;;;;;;;9.43;8.30;;;3.40;30.60;;;;;;10475390;28;20278;-73
2021/03/09 04:30:28;;;;;;;9.03;8.13;;;3.40;30.70;;;;;;10482739;28;20227;-74
2021/03/09 04:35:32;;;;;;;10.77;7.83;;;3.40;30.50;;;;;;10480927;28;20239;-73
2021/03/09 04:40:35;;;;;;;10.10;8.57;;;3.40;30.60;;;;;;10476744;28;20228;-74
2021/03/09 04:45:37;;;;;;;8.43;7.53;;;3.30;30.50;;;;;;10476259;28;20232;-76
2021/03/09 04:50:43;;;;;;;9.23;8.17;;;3.30;30.40;;;;;;10478399;28;20250;-76
2021/03/09 04:55:46;;;;;;;9.00;8.10;;;3.20;30.50;;;;;;10483669;28;20231;-75
2021/03/09 05:00:48;;;;;;;9.80;8.70;;;3.20;30.40;;;;;;10476340;28;20598;-76
2021/03/09 05:05:51;;;;;;;10.10;8.67;;;3.20;30.40;;;;;;10476487;28;20232;-76
2021/03/09 05:10:55;;;;;;;11.30;9.40;;;3.10;30.50;;;;;;10474340;28;20232;-76
2021/03/09 05:15:57;;;;;;;11.50;9.97;;;3.20;30.70;;;;;;10476937;28;21559;-76
2021/03/09 05:21:01;;;;;;;12.53;9.07;;;3.00;30.70;;;;;;10474219;28;20232;-75
2021/03/09 05:26:03;;;;;;;10.40;8.90;;;3.00;30.80;;;;;;10476623;28;20228;-75
2021/03/09 05:31:05;;;;;;;11.27;9.33;;;2.90;30.60;;;;;;10477274;28;20213;-75
2021/03/09 05:36:09;;;;;;;10.30;9.23;;;2.90;30.80;;;;;;10475728;28;20646;-75
2021/03/09 05:41:11;;;;;;;10.97;8.57;;;2.80;30.80;;;;;;10476141;28;20224;-75
2021/03/09 05:46:13;;;;;;;11.73;8.57;;;2.80;30.80;;;;;;10478822;28;20220;-76
2021/03/09 05:51:17;;;;;;;11.00;8.83;;;2.80;30.90;;;;;;10476535;28;20227;-76
2021/03/09 05:56:19;;;;;;;11.97;9.17;;;2.70;30.90;;;;;;10476600;28;20270;-76
2021/03/09 06:01:22;;;;;;;12.17;10.17;;;2.80;31.00;;;;;;10475635;28;20243;-76
2021/03/09 06:06:25;;;;;;;11.33;9.90;;;2.70;31.60;;;;;;10472614;28;20391;-75
2021/03/09 06:11:28;;;;;;;12.13;9.60;;;2.70;31.00;;;;;;10477851;28;20230;-76
2021/03/09 06:16:34;;;;;;;10.70;9.60;;;2.70;31.10;;;;;;10475151;28;20235;-75
2021/03/09 06:21:38;;;;;;;11.40;9.83;;;2.80;31.50;;;;;;10476578;28;20220;-75
2021/03/09 06:26:41;;;;;;;15.10;11.00;;;2.70;31.30;;;;;;10476243;28;20250;-75
2021/03/09 06:32:00;;;;;;;13.80;11.67;;;2.70;31.40;;;;;;10474795;28;20713;-75
2021/03/09 06:37:06;;;;;;;15.13;11.53;;;2.70;31.90;;;;;;10469866;28;20751;-74
2021/03/09 06:42:08;;;;;;;15.30;11.67;;;2.70;31.70;;;;;;10471106;28;20228;-75
2021/03/09 06:47:10;;;;;;;11.90;10.57;;;2.70;31.70;;;;;;10474770;28;20242;-75
2021/03/09 06:52:14;;;;;;;12.40;10.20;;;2.70;31.80;;;;;;10475111;28;20316;-74
2021/03/09 06:57:16;;;;;;;14.00;11.10;;;2.70;32.00;;;;;;10473975;28;20232;-73
2021/03/09 07:02:20;;;;;;;14.30;11.13;;;2.80;31.90;;;;;;10475714;28;20358;-73
2021/03/09 07:07:30;;;;;;;17.53;12.40;;;2.90;32.90;;;;;;10471432;28;20623;-73
2021/03/09 07:12:33;;;;;;;17.80;13.20;;;2.90;32.60;;;;;;10488289;28;20228;-74
2021/03/09 07:17:37;;;;;;;15.60;11.97;;;3.00;32.40;;;;;;10484321;28;20721;-72
2021/03/09 07:22:42;;;;;;;13.77;12.13;;;3.10;32.90;;;;;;10489137;28;20718;-71
2021/03/09 07:27:51;;;;;;;16.70;13.00;;;3.10;33.10;;;;;;10488627;28;20231;-71
2021/03/09 07:32:56;;;;;;;14.83;11.87;;;3.20;33.30;;;;;;10485253;28;20308;-71
2021/03/09 07:38:00;;;;;;;14.10;12.20;;;3.30;33.20;;;;;;10489140;28;20228;-71
2021/03/09 07:43:03;;;;;;;15.47;13.27;;;3.30;33.30;;;;;;10487382;28;20220;-71
2021/03/09 07:48:07;;;;;;;14.77;12.80;;;3.40;33.40;;;;;;10490034;28;20575;-71
2021/03/09 07:53:11;;;;;;;15.80;13.10;;;3.40;33.70;;;;;;10488784;28;20228;-70
2021/03/09 07:58:19;;;;;;;16.27;13.43;;;3.60;34.30;;;;;;10488400;28;20236;-70
2021/03/09 08:03:21;;;;;;;13.80;12.17;;;3.70;34.50;;;;;;10474952;28;20224;-70
2021/03/09 08:08:43;;;;;;;14.73;12.43;;;3.90;34.40;;;;;;10479792;28;20275;-70
2021/03/09 08:13:46;;;;;;;13.13;11.53;;;4.00;35.90;;;;;;10487735;28;20605;-70
2021/03/09 08:18:49;;;;;;;13.50;11.93;;;4.20;34.70;;;;;;10489432;28;20224;-70
2021/03/09 08:23:55;;;;;;;15.60;12.43;;;4.40;34.70;;;;;;10487172;28;20224;-70
2021/03/09 08:28:58;;;;;;;15.27;12.40;;;4.70;35.30;;;;;;10489153;28;20246;-70
2021/03/09 08:34:21;;;;;;;17.67;12.40;;;4.90;34.80;;;;;;10481943;28;20243;-70
2021/03/09 08:39:24;;;;;;;16.80;13.17;;;5.10;35.60;;;;;;10481892;28;20238;-70
2021/03/09 08:44:28;;;;;;;16.10;13.60;;;5.40;35.00;;;;;;10486540;28;20236;-70
2021/03/09 08:49:48;;;;;;;14.80;13.20;;;5.70;34.90;;;;;;10489595;28;20230;-70
2021/03/09 08:54:52;;;;;;;16.23;13.73;;;5.90;35.30;;;;;;10479478;28;20232;-70
2021/03/09 09:00:01;;;;;;;16.33;14.63;;;6.10;34.80;;;;;;10484346;28;20232;-70
2021/03/09 09:05:06;;;;;;;15.87;13.90;;;6.30;34.80;;;;;;10483156;28;20230;-69
2021/03/09 09:10:12;;;;;;;16.17;14.50;;;6.50;34.70;;;;;;10486316;28;20305;-70
2021/03/09 09:15:18;;;;;;;16.73;13.70;;;6.70;34.50;;;;;;10487204;28;20731;-69
2021/03/09 09:20:29;;;;;;;15.67;14.07;;;6.90;34.40;;;;;;10476825;28;20220;-69
2021/03/09 09:25:35;;;;;;;15.97;14.27;;;7.10;34.20;;;;;;10478079;28;20228;-70
2021/03/09 09:30:40;;;;;;;17.63;14.97;;;7.30;33.80;;;;;;10482445;28;20223;-70
2021/03/09 09:35:44;;;;;;;16.10;14.43;;;7.40;33.70;;;;;;10481473;28;20277;-68
2021/03/09 09:40:49;;;;;;;16.47;14.40;;;7.60;33.90;;;;;;10485295;28;20231;-69
2021/03/09 09:45:53;;;;;;;15.20;13.60;;;7.70;33.80;;;;;;10477413;28;20587;-69
2021/03/09 09:50:58;;;;;;;17.63;13.97;;;7.90;33.40;;;;;;10485834;28;20228;-69
2021/03/09 09:56:03;;;;;;;16.57;14.87;;;8.10;33.40;;;;;;10484708;28;20724;-69
2021/03/09 10:01:05;;;;;;;17.03;15.23;;;8.30;33.60;;;;;;10483034;28;20593;-69
2021/03/09 10:06:17;;;;;;;19.17;15.20;;;8.50;33.60;;;;;;10485713;28;20316;-69
2021/03/09 10:11:21;;;;;;;16.43;14.50;;;8.60;32.70;;;;;;10481329;28;20225;-69
2021/03/09 10:16:36;;;;;;;15.57;13.50;;;8.80;32.60;;;;;;10472252;28;20240;-69
2021/03/09 10:21:39;;;;;;;15.50;14.00;;;8.90;32.20;;;;;;10480223;28;20519;-68
2021/03/09 10:26:42;;;;;;;15.83;14.10;;;8.90;33.20;;;;;;10478356;28;20228;-69
2021/03/09 10:31:49;;;;;;;17.00;15.17;;;9.10;32.80;;;;;;10485939;28;20220;-68
2021/03/09 10:36:59;;;;;;;15.47;13.87;;;9.20;32.60;;;;;;10482195;28;20251;-68
2021/03/09 10:42:30;;;;;;;15.17;13.57;;;9.50;32.90;;;;;;10482839;28;20568;-69
2021/03/09 10:47:32;;;;;;;13.80;12.37;;;9.70;31.70;;;;;;10477723;28;20224;-69
2021/03/09 10:52:34;;;;;;;12.50;11.20;;;9.80;32.10;;;;;;10486142;28;20231;-69
2021/03/09 10:57:37;;;;;;;12.20;10.97;;;10.00;30.90;;;;;;10483956;28;20330;-68
2021/03/09 11:02:41;;;;;;;9.57;8.00;;;10.20;30.60;;;;;;10486060;28;20227;-68
2021/03/09 11:07:43;;;;;;;8.40;7.60;;;10.40;30.40;;;;;;10478437;28;20236;-69
2021/03/09 11:12:46;;;;;;;8.10;6.57;;;10.60;29.90;;;;;;10477089;28;20229;-69
2021/03/09 11:17:49;;;;;;;5.90;5.30;;;10.70;29.30;;;;;;10478316;28;20228;-69
2021/03/09 11:22:51;;;;;;;8.80;7.87;;;10.70;28.80;;;;;;10481269;28;20629;-69
2021/03/09 11:27:59;;;;;;;8.20;7.40;;;10.70;28.80;;;;;;10480444;28;20286;-69
2021/03/09 11:33:01;;;;;;;8.20;7.40;;;10.70;28.80;;;;;;10477658;28;20220;-69
2021/03/09 11:38:04;;;;;;;5.87;5.37;;;10.70;28.80;;;;;;10449736;28;20229;-69
2021/03/09 11:43:07;;;;;;;7.87;5.97;;;10.60;28.50;;;;;;10484339;28;20232;-69
2021/03/09 11:48:09;;;;;;;6.07;5.57;;;10.70;28.50;;;;;;10480987;28;20649;-69
2021/03/09 11:53:12;;;;;;;11.07;9.97;;;10.70;28.80;;;;;;10483139;28;20238;-69
2021/03/09 11:58:19;;;;;;;10.90;9.90;;;10.70;28.80;;;;;;10494790;28;20307;-69
2021/03/09 12:03:22;;;;;;;10.27;9.13;;;10.70;29.30;;;;;;10477999;28;20335;-69
2021/03/09 12:08:24;;;;;;;10.13;8.67;;;10.70;28.70;;;;;;10467963;28;20239;-69
2021/03/09 12:13:27;;;;;;;10.53;9.10;;;10.70;28.80;;;;;;10488688;28;20235;-69
2021/03/09 12:18:29;;;;;;;10.60;9.50;;;10.70;28.50;;;;;;10488486;28;20220;-69
2021/03/09 12:23:32;;;;;;;9.43;8.53;;;10.60;28.30;;;;;;10487523;28;20212;-69
2021/03/09 12:28:43;;;;;;;9.13;8.33;;;10.60;28.70;;;;;;10484261;28;20314;-69
2021/03/09 12:33:45;;;;;;;9.17;8.27;;;10.70;28.60;;;;;;10490021;28;20590;-69
2021/03/09 12:38:47;;;;;;;9.07;8.27;;;10.70;28.80;;;;;;10489556;28;20254;-69
2021/03/09 12:43:51;;;;;;;9.50;8.43;;;10.80;28.60;;;;;;10489436;28;20643;-69
2021/03/09 12:48:53;;;;;;;9.40;8.50;;;10.90;28.30;;;;;;10488267;28;20299;-69
2021/03/09 12:53:55;;;;;;;9.43;8.53;;;10.90;28.30;;;;;;10485325;28;20335;-69
2021/03/09 12:59:04;;;;;;;10.17;9.17;;;11.00;28.30;;;;;;10489021;28;20613;-69
2021/03/09 13:04:07;;;;;;;9.30;8.40;;;11.00;27.90;;;;;;10483898;28;20234;-69
2021/03/09 13:09:09;;;;;;;9.87;8.87;;;11.00;28.10;;;;;;10486277;28;20231;-69
2021/03/09 13:14:13;;;;;;;9.83;8.93;;;11.00;28.00;;;;;;10489271;28;20243;-69
2021/03/09 13:19:15;;;;;;;9.50;8.60;;;11.00;27.60;;;;;;10477915;28;20577;-69
2021/03/09 13:24:18;;;;;;;9.17;8.33;;;11.10;27.90;;;;;;10477586;28;20220;-69
2021/03/09 13:29:28;;;;;;;9.20;8.40;;;11.10;27.70;;;;;;10484993;28;20697;-69
2021/03/09 13:34:30;;;;;;;8.90;8.07;;;11.10;27.50;;;;;;10483822;28;20235;-69
2021/03/09 13:39:33;;;;;;;9.27;8.37;;;11.10;27.60;;;;;;10487024;28;20700;-69
2021/03/09 13:44:36;;;;;;;7.87;7.10;;;11.10;27.50;;;;;;10481890;28;20229;-69
2021/03/09 13:49:38;;;;;;;8.10;7.30;;;11.20;26.70;;;;;;10483575;28;20760;-68
2021/03/09 13:54:40;;;;;;;8.27;7.47;;;11.10;26.60;;;;;;10479117;28;20311;-69
2021/03/09 13:59:51;;;;;;;7.23;6.50;;;11.00;26.30;;;;;;10486807;28;20715;-69
2021/03/09 14:04:56;;;;;;;7.17;6.57;;;10.80;26.40;;;;;;10482643;28;20230;-69
2021/03/09 14:09:58;;;;;;;7.80;7.00;;;10.80;26.80;;;;;;10485346;28;20235;-69
2021/03/09 14:15:03;;;;;;;7.00;6.40;;;10.70;26.60;;;;;;10486150;28;20220;-69
2021/03/09 14:20:08;;;;;;;6.27;5.77;;;10.70;26.60;;;;;;10435517;28;20825;-69
2021/03/09 14:25:12;;;;;;;7.23;6.47;;;10.70;26.60;;;;;;10464669;28;20228;-69
2021/03/09 14:30:17;;;;;;;7.73;6.90;;;10.70;26.20;;;;;;10477711;28;20228;-69
2021/03/09 14:35:20;;;;;;;7.80;7.07;;;10.60;26.60;;;;;;10481697;28;20223;-68
2021/03/09 14:40:28;;;;;;;8.50;7.70;;;10.60;26.70;;;;;;10479691;28;20626;-68
2021/03/09 14:45:32;;;;;;;8.00;7.20;;;10.50;26.50;;;;;;10482163;28;20626;-69
2021/03/09 14:50:35;;;;;;;7.97;7.23;;;10.50;26.20;;;;;;10483106;28;20261;-69
2021/03/09 14:55:37;;;;;;;8.27;6.93;;;10.40;26.60;;;;;;10485361;28;20225;-69
2021/03/09 15:00:41;;;;;;;7.10;6.50;;;10.40;26.70;;;;;;10482396;28;20702;-69
2021/03/09 15:05:43;;;;;;;6.90;6.23;;;10.40;26.60;;;;;;10483587;28;20224;-70
2021/03/09 15:10:45;;;;;;;7.23;6.63;;;10.40;26.90;;;;;;10483329;28;20224;-70
2021/03/09 15:15:48;;;;;;;8.93;8.13;;;10.40;27.00;;;;;;10478648;28;20228;-70
2021/03/09 15:20:50;;;;;;;7.97;6.57;;;10.50;26.80;;;;;;10480464;28;20224;-70
2021/03/09 15:25:53;;;;;;;7.53;6.83;;;10.60;26.80;;;;;;10480539;28;20228;-69
2021/03/09 15:31:10;;;;;;;7.60;6.90;;;10.60;26.80;;;;;;10466392;28;20227;-69
2021/03/09 15:36:13;;;;;;;8.87;7.47;;;10.60;26.60;;;;;;10490261;28;20629;-73
2021/03/09 15:41:15;;;;;;;7.57;6.87;;;10.60;26.60;;;;;;10490811;28;20424;-68
2021/03/09 15:46:18;;;;;;;7.37;6.63;;;10.60;26.70;;;;;;10491986;28;20234;-70
2021/03/09 15:51:21;;;;;;;8.20;7.40;;;10.60;26.60;;;;;;10491598;28;20749;-69
2021/03/09 15:56:23;;;;;;;8.97;8.13;;;10.60;26.70;;;;;;10509472;22;20229;-67
2021/03/09 16:01:33;;;;;;;8.93;8.13;;;10.60;26.10;;;;;;10450683;28;20232;-66
2021/03/09 16:06:35;;;;;;;9.37;8.57;;;10.40;26.10;;;;;;10447786;28;20240;-68
2021/03/09 16:11:38;;;;;;;9.67;8.77;;;10.20;26.10;;;;;;10447049;28;20233;-76
2021/03/09 16:16:41;;;;;;;11.67;8.53;;;10.00;26.40;;;;;;10446574;28;20221;-75
2021/03/09 16:21:43;;;;;;;8.77;7.97;;;10.00;26.60;;;;;;10443626;28;20224;-75
2021/03/09 16:26:45;;;;;;;9.10;7.80;;;9.90;27.30;;;;;;10449452;28;20228;-75
2021/03/09 16:31:58;;;;;;;8.83;8.03;;;9.80;27.70;;;;;;10443616;28;20312;-75
2021/03/09 16:37:00;;;;;;;8.77;7.87;;;9.80;27.80;;;;;;10449460;28;20270;-75
2021/03/09 16:42:03;;;;;;;9.30;8.40;;;9.80;28.00;;;;;;10475603;28;20227;-73
2021/03/09 16:47:06;;;;;;;9.00;8.20;;;9.90;28.10;;;;;;10491648;28;20228;-74
2021/03/09 16:52:09;;;;;;;9.00;8.10;;;9.90;27.80;;;;;;10482571;28;20224;-74
2021/03/09 16:57:11;;;;;;;9.03;8.23;;;10.00;27.20;;;;;;10486089;28;20979;-74
2021/03/09 17:02:24;;;;;;;9.77;8.77;;;10.00;27.20;;;;;;10489982;28;20276;-74
2021/03/09 17:07:27;;;;;;;17.97;15.37;;;10.00;27.20;;;;;;10488200;28;20302;-74
2021/03/09 17:12:29;;;;;;;16.33;13.17;;;10.00;27.10;;;;;;10487824;28;20936;-74
2021/03/09 17:17:32;;;;;;;14.57;12.07;;;10.00;27.10;;;;;;10487341;28;20223;-74
2021/03/09 17:22:34;;;;;;;13.73;11.77;;;10.00;27.20;;;;;;10485653;28;20256;-72
2021/03/09 17:27:37;;;;;;;19.33;13.43;;;10.00;27.30;;;;;;10486481;28;20223;-72
2021/03/09 17:32:51;;;;;;;15.60;11.27;;;10.00;27.60;;;;;;10485396;28;20239;-74
2021/03/09 17:37:53;;;;;;;12.67;11.37;;;10.00;27.40;;;;;;10488462;28;20641;-75
2021/03/09 17:42:55;;;;;;;14.30;11.27;;;10.00;27.40;;;;;;10489791;28;20737;-75
2021/03/09 17:48:00;;;;;;;10.90;9.70;;;10.00;27.40;;;;;;10490839;28;20228;-76
2021/03/09 17:53:12;;;;;;;11.83;10.63;;;10.00;27.30;;;;;;10483682;28;20593;-75
2021/03/09 17:58:15;;;;;;;23.60;21.10;;;9.90;28.00;;;;;;10488155;28;20597;-75
2021/03/09 18:03:18;;;;;;;24.67;22.00;;;9.80;28.00;;;;;;10487373;28;20323;-76
2021/03/09 18:08:20;;;;;;;25.70;22.10;;;9.80;28.10;;;;;;10486791;28;20288;-75
2021/03/09 18:13:22;;;;;;;21.83;18.70;;;9.70;28.30;;;;;;10479214;28;20239;-75
2021/03/09 18:18:25;;;;;;;18.27;16.37;;;9.70;28.50;;;;;;10481320;28;20225;-75
2021/03/09 18:23:27;;;;;;;18.47;13.97;;;9.70;28.70;;;;;;10480331;28;20234;-69
2021/03/09 18:28:30;;;;;;;13.43;12.13;;;9.70;28.50;;;;;;10483644;28;20244;-69
2021/03/09 18:33:33;;;;;;;11.43;10.33;;;9.70;28.60;;;;;;10482597;28;20224;-69
2021/03/09 18:38:35;;;;;;;12.27;11.07;;;9.70;28.60;;;;;;10480949;28;20228;-74
2021/03/09 18:43:37;;;;;;;11.80;10.63;;;9.70;28.50;;;;;;10485654;28;20232;-74
2021/03/09 18:48:40;;;;;;;11.83;10.70;;;9.70;28.50;;;;;;10482557;28;20228;-74
2021/03/09 18:53:42;;;;;;;11.53;10.27;;;9.70;28.50;;;;;;10485157;28;20286;-74
2021/03/09 18:58:45;;;;;;;10.90;9.90;;;9.60;28.50;;;;;;10481608;28;20224;-74
2021/03/09 19:03:50;;;;;;;11.57;10.47;;;9.50;28.50;;;;;;10485843;28;20632;-74
2021/03/09 19:08:52;;;;;;;12.53;10.63;;;9.40;28.60;;;;;;10482746;28;20216;-74
2021/03/09 19:13:55;;;;;;;11.37;10.13;;;9.30;28.60;;;;;;10479023;28;20228;-74
2021/03/09 19:18:58;;;;;;;13.10;11.80;;;9.20;28.50;;;;;;10481387;28;20236;-74
2021/03/09 19:24:00;;;;;;;14.80;13.30;;;9.10;28.50;;;;;;10483280;28;21035;-74
2021/03/09 19:29:03;;;;;;;16.80;14.13;;;9.00;28.40;;;;;;10478351;28;20231;-74
2021/03/09 19:34:12;;;;;;;21.77;19.53;;;8.80;28.30;;;;;;10485519;28;20232;-75
2021/03/09 19:39:14;;;;;;;19.47;17.47;;;8.70;28.70;;;;;;10479129;28;20259;-74
2021/03/09 19:44:17;;;;;;;16.10;14.50;;;8.60;28.80;;;;;;10484471;28;20594;-68
2021/03/09 19:49:20;;;;;;;22.37;18.60;;;8.60;28.90;;;;;;10482279;28;20232;-74
2021/03/09 19:54:23;;;;;;;27.10;22.30;;;8.50;29.00;;;;;;10479714;28;20236;-69
2021/03/09 19:59:26;;;;;;;15.43;12.87;;;8.50;29.10;;;;;;10479563;28;20230;-69
2021/03/09 20:04:35;;;;;;;15.03;13.43;;;8.40;29.10;;;;;;10474775;28;20917;-75
2021/03/09 20:09:37;;;;;;;14.60;13.00;;;8.40;29.20;;;;;;10478280;28;20231;-74
2021/03/09 20:14:39;;;;;;;13.97;12.60;;;8.40;29.20;;;;;;10479094;28;20279;-74
2021/03/09 20:19:42;;;;;;;11.60;10.43;;;8.40;29.20;;;;;;10484000;28;20225;-75
2021/03/09 20:24:44;;;;;;;11.07;9.97;;;8.40;29.30;;;;;;10479054;28;20236;-74
2021/03/09 20:29:48;;;;;;;11.57;9.47;;;8.30;29.10;;;;;;10476167;28;20227;-68
2021/03/09 20:34:57;;;;;;;10.47;9.37;;;8.30;29.80;;;;;;10475241;28;20247;-74
2021/03/09 20:40:00;;;;;;;9.63;8.73;;;8.30;29.30;;;;;;10482632;28;20234;-74
2021/03/09 20:45:03;;;;;;;10.33;9.33;;;8.30;29.40;;;;;;10484484;28;20262;-74
2021/03/09 20:50:10;;;;;;;9.93;9.03;;;8.30;29.40;;;;;;10481071;28;20232;-74
2021/03/09 20:55:13;;;;;;;9.53;8.63;;;8.30;29.60;;;;;;10478680;28;20303;-74
2021/03/09 21:00:35;;;;;;;10.77;9.67;;;8.30;29.40;;;;;;10474732;28;20228;-73
2021/03/09 21:05:39;;;;;;;11.50;10.27;;;8.30;29.40;;;;;;10474264;28;20217;-73
2021/03/09 21:10:42;;;;;;;10.60;9.60;;;8.30;29.40;;;;;;10477225;28;20224;-74
2021/03/09 21:15:46;;;;;;;10.47;9.03;;;8.40;29.40;;;;;;10475663;28;20276;-74
2021/03/09 21:20:53;;;;;;;9.70;8.70;;;8.40;29.50;;;;;;10480089;28;20216;-74
2021/03/09 21:25:55;;;;;;;9.70;8.70;;;8.30;29.40;;;;;;10472840;28;20258;-74
2021/03/09 21:30:57;;;;;;;11.87;9.07;;;8.30;29.40;;;;;;10473305;28;20680;-72
2021/03/09 21:36:01;;;;;;;11.90;9.33;;;8.40;29.50;;;;;;10474865;28;20319;-73
2021/03/09 21:41:04;;;;;;;9.83;8.87;;;8.30;29.60;;;;;;10474276;28;20615;-68
2021/03/09 21:46:06;;;;;;;10.50;9.40;;;8.30;29.60;;;;;;10470117;28;20220;-68
2021/03/09 21:51:10;;;;;;;10.17;9.17;;;8.30;29.60;;;;;;10470215;28;20213;-74
2021/03/09 21:56:13;;;;;;;11.20;10.13;;;8.30;30.10;;;;;;10479403;28;20224;-73
2021/03/09 22:01:15;;;;;;;12.13;10.93;;;8.30;29.70;;;;;;10469460;28;20244;-73
2021/03/09 22:06:19;;;;;;;9.37;8.57;;;8.30;29.70;;;;;;10471773;28;20240;-73
2021/03/09 22:11:21;;;;;;;8.37;7.57;;;8.40;29.70;;;;;;10476915;28;20450;-73
2021/03/09 22:16:23;;;;;;;10.40;9.40;;;8.40;29.70;;;;;;10473807;28;20248;-73
2021/03/09 22:21:27;;;;;;;11.07;9.93;;;8.40;29.70;;;;;;10478652;28;20239;-73
2021/03/09 22:26:31;;;;;;;11.93;8.87;;;8.40;29.70;;;;;;10474330;28;20242;-73
2021/03/09 22:31:34;;;;;;;10.37;9.37;;;8.40;29.60;;;;;;10475507;28;20759;-73
2021/03/09 22:36:37;;;;;;;10.93;9.83;;;8.40;29.70;;;;;;10476380;28;20224;-73
2021/03/09 22:41:40;;;;;;;12.27;10.13;;;8.40;29.90;;;;;;10475282;28;20627;-68
2021/03/09 22:46:42;;;;;;;11.30;10.20;;;8.40;30.00;;;;;;10473987;28;20220;-69
2021/03/09 22:51:45;;;;;;;11.10;10.03;;;8.30;30.10;;;;;;10473829;28;20234;-73
2021/03/09 22:56:48;;;;;;;11.10;9.70;;;8.30;30.40;;;;;;10474964;28;20323;-73
2021/03/09 23:01:50;;;;;;;11.03;9.87;;;8.20;30.50;;;;;;10468748;28;20282;-73
2021/03/09 23:06:57;;;;;;;10.80;9.50;;;8.20;30.60;;;;;;10471967;28;20235;-73
2021/03/09 23:11:59;;;;;;;10.90;9.80;;;8.20;30.80;;;;;;10473853;28;20242;-72
2021/03/09 23:17:01;;;;;;;9.33;8.37;;;8.20;30.80;;;;;;10431558;28;20287;-73
2021/03/09 23:22:04;;;;;;;11.13;10.03;;;8.20;31.70;;;;;;10430503;28;20697;-73
2021/03/09 23:27:07;;;;;;;10.13;9.13;;;8.20;31.30;;;;;;10430211;28;20312;-73
2021/03/09 23:32:10;;;;;;;11.13;9.87;;;8.20;31.20;;;;;;10431833;28;20688;-73
2021/03/09 23:37:17;;;;;;;10.97;9.87;;;8.20;31.30;;;;;;10432667;28;20228;-73
2021/03/09 23:42:19;;;;;;;11.03;9.50;;;8.10;31.50;;;;;;10430019;28;20312;-73
2021/03/09 23:47:21;;;;;;;11.67;10.60;;;8.10;31.50;;;;;;10436646;28;20338;-73
2021/03/09 23:52:24;;;;;;;10.57;9.50;;;8.00;31.50;;;;;;10439412;28;20232;-73
2021/03/09 23:57:27;;;;;;;10.20;9.20;;;8.00;31.70;;;;;;10435201;28;20232;-73
